createdAt,value
2023-01-29T00:01:16.966Z,6.00
2023-01-29T00:03:43.399Z,6.05
2023-01-29T00:06:10.330Z,5.93
2023-01-29T00:08:37.281Z,6.53
2023-01-29T00:11:04.664Z,6.18
2023-01-29T00:13:31.044Z,6.18
2023-01-29T00:15:58.349Z,5.90
2023-01-29T00:18:24.889Z,5.97
2023-01-29T00:20:51.528Z,6.80
2023-01-29T00:23:18.086Z,6.60
2023-01-29T00:25:44.397Z,5.97
2023-01-29T00:28:11.075Z,5.95
2023-01-29T00:30:37.844Z,5.65
2023-01-29T00:33:04.663Z,5.80
2023-01-29T00:35:31.724Z,5.45
2023-01-29T00:37:58.378Z,5.65
2023-01-29T00:40:26.154Z,5.43
2023-01-29T00:43:11.229Z,5.32
2023-01-29T00:45:38.508Z,5.50
2023-01-29T00:48:05.912Z,5.38
2023-01-29T00:50:32.351Z,5.03
2023-01-29T00:52:58.708Z,5.60
2023-01-29T00:55:25.022Z,5.30
2023-01-29T00:57:51.376Z,5.50
2023-01-29T01:00:19.045Z,5.63
2023-01-29T01:03:04.256Z,5.50
2023-01-29T01:05:30.538Z,5.63
2023-01-29T01:07:58.223Z,5.38
2023-01-29T01:10:24.780Z,5.47
2023-01-29T01:12:55.824Z,5.60
2023-01-29T01:15:23.124Z,5.45
2023-01-29T01:17:52.460Z,5.68
2023-01-29T01:20:19.481Z,5.68
2023-01-29T01:22:45.887Z,5.85
2023-01-29T01:25:12.370Z,5.50
2023-01-29T01:27:41.064Z,5.43
2023-01-29T01:30:08.800Z,5.47
2023-01-29T01:32:35.145Z,5.32
2023-01-29T01:35:01.470Z,5.63
2023-01-29T01:37:27.732Z,5.38
2023-01-29T01:39:57.724Z,6.00
2023-01-29T01:42:33.058Z,5.72
2023-01-29T01:45:01.268Z,5.78
2023-01-29T01:47:37.772Z,5.55
2023-01-29T01:50:30.540Z,5.90
2023-01-29T01:53:09.141Z,6.28
2023-01-29T01:55:37.783Z,5.93
2023-01-29T01:58:08.102Z,6.00
2023-01-29T02:00:34.579Z,5.22
2023-01-29T02:03:20.623Z,6.53
2023-01-29T02:06:07.405Z,6.45
2023-01-29T02:09:01.404Z,5.72
2023-01-29T02:11:27.693Z,5.68
2023-01-29T02:13:53.985Z,6.50
2023-01-29T02:16:25.061Z,6.38
2023-01-29T02:18:51.389Z,5.95
2023-01-29T02:21:32.349Z,6.60
2023-01-29T02:24:01.565Z,6.32
2023-01-29T02:26:39.071Z,6.55
2023-01-29T02:29:25.133Z,6.43
2023-01-29T02:32:08.333Z,6.32
2023-01-29T02:35:05.083Z,5.50
2023-01-29T02:38:01.030Z,7.13
2023-01-29T02:40:50.069Z,7.00
2023-01-29T02:43:25.484Z,6.90
2023-01-29T02:46:11.271Z,6.85
2023-01-29T02:48:47.585Z,6.32
2023-01-29T02:51:19.111Z,6.28
2023-01-29T02:54:03.936Z,7.00
2023-01-29T02:56:44.825Z,7.57
2023-01-29T02:59:20.264Z,8.15
2023-01-29T03:01:49.284Z,7.25
2023-01-29T03:04:21.660Z,7.03
2023-01-29T03:06:51.916Z,6.63
2023-01-29T03:09:36.417Z,6.72
2023-01-29T03:12:19.851Z,7.00
2023-01-29T03:15:07.063Z,7.25
2023-01-29T03:17:37.558Z,6.85
2023-01-29T03:20:07.914Z,6.85
2023-01-29T03:22:35.701Z,6.75
2023-01-29T03:25:21.409Z,7.85
2023-01-29T03:28:12.052Z,7.75
2023-01-29T03:31:07.106Z,8.55
2023-01-29T03:33:48.645Z,8.15
2023-01-29T03:36:22.771Z,9.15
2023-01-29T03:41:35.832Z,8.15
2023-01-29T03:44:26.369Z,8.25
2023-01-29T03:46:56.443Z,8.30
2023-01-29T03:49:32.234Z,8.68
2023-01-29T03:52:04.967Z,9.18
2023-01-29T03:54:40.212Z,9.00
2023-01-29T03:57:18.018Z,8.95
2023-01-29T03:59:53.386Z,8.30
2023-01-29T04:02:52.682Z,8.23
2023-01-29T04:05:20.880Z,8.57
2023-01-29T04:08:11.204Z,8.55
2023-01-29T04:10:39.041Z,8.57
2023-01-29T04:13:07.487Z,9.38
2023-01-29T04:15:36.508Z,9.65
2023-01-29T04:18:03.037Z,9.35
2023-01-29T04:20:49.419Z,9.68
2023-01-29T04:23:20.204Z,9.35
2023-01-29T04:25:53.231Z,9.65
2023-01-29T04:28:23.101Z,9.27
2023-01-29T04:30:59.452Z,9.70
2023-01-29T04:33:34.545Z,9.27
2023-01-29T04:36:19.860Z,9.82
2023-01-29T04:39:06.322Z,9.85
2023-01-29T04:41:38.712Z,10.38
2023-01-29T04:44:12.787Z,10.27
2023-01-29T04:46:42.098Z,10.48
2023-01-29T04:49:27.493Z,10.23
2023-01-29T04:52:09.272Z,10.63
2023-01-29T04:54:44.665Z,9.80
2023-01-29T04:57:29.896Z,10.57
2023-01-29T04:59:59.325Z,10.73
2023-01-29T05:02:26.657Z,10.93
2023-01-29T05:04:53.952Z,11.13
2023-01-29T05:07:21.239Z,10.40
2023-01-29T05:09:48.381Z,11.77
2023-01-29T05:12:15.737Z,11.40
2023-01-29T05:14:43.143Z,11.48
2023-01-29T05:17:12.802Z,12.32
2023-01-29T05:19:39.060Z,12.18
2023-01-29T05:22:06.082Z,11.57
2023-01-29T05:24:32.390Z,11.80
2023-01-29T05:27:17.117Z,11.30
2023-01-29T05:29:45.384Z,11.48
2023-01-29T05:32:11.799Z,11.23
2023-01-29T05:34:38.086Z,11.65
2023-01-29T05:37:04.345Z,11.85
2023-01-29T05:39:30.733Z,11.25
2023-01-29T05:41:56.990Z,13.73
2023-01-29T05:44:23.284Z,11.88
2023-01-29T05:46:50.241Z,12.43
2023-01-29T05:49:17.752Z,12.75
2023-01-29T05:51:44.245Z,12.95
2023-01-29T05:54:11.817Z,12.60
2023-01-29T05:56:38.343Z,12.20
2023-01-29T05:59:04.661Z,10.88
2023-01-29T06:01:30.967Z,12.23
2023-01-29T06:03:57.272Z,11.55
2023-01-29T06:06:23.533Z,11.32
2023-01-29T06:08:49.930Z,11.63
2023-01-29T06:11:18.117Z,12.20
2023-01-29T06:13:45.136Z,12.30
2023-01-29T06:16:12.166Z,12.13
2023-01-29T06:18:38.984Z,11.95
2023-01-29T06:21:06.032Z,12.73
2023-01-29T06:23:32.604Z,11.38
2023-01-29T06:25:59.529Z,11.82
2023-01-29T06:28:25.822Z,12.02
2023-01-29T06:30:52.130Z,12.02
2023-01-29T06:33:18.404Z,11.52
2023-01-29T06:35:44.708Z,11.27
2023-01-29T06:38:10.960Z,12.35
2023-01-29T06:40:38.504Z,11.93
2023-01-29T06:43:04.839Z,11.73
2023-01-29T06:45:31.120Z,12.57
2023-01-29T06:47:59.315Z,12.35
2023-01-29T06:50:26.790Z,12.00
2023-01-29T06:52:53.090Z,12.20
2023-01-29T06:55:19.345Z,12.23
2023-01-29T06:57:45.711Z,12.82
2023-01-29T07:00:12.364Z,13.25
2023-01-29T07:02:38.672Z,12.02
2023-01-29T07:05:05.133Z,12.68
2023-01-29T07:07:31.449Z,13.00
2023-01-29T07:09:57.749Z,12.82
2023-01-29T07:12:24.028Z,13.35
2023-01-29T07:14:50.294Z,12.32
2023-01-29T07:17:16.580Z,12.05
2023-01-29T07:19:42.859Z,12.20
2023-01-29T07:22:09.162Z,12.32
2023-01-29T07:24:35.453Z,12.45
2023-01-29T07:27:01.702Z,12.50
2023-01-29T07:29:28.083Z,11.70
2023-01-29T07:31:54.519Z,10.90
2023-01-29T07:34:20.880Z,11.70
2023-01-29T07:36:47.197Z,11.45
2023-01-29T07:39:13.602Z,10.88
2023-01-29T07:41:39.953Z,11.43
2023-01-29T07:44:15.040Z,11.50
2023-01-29T07:46:41.351Z,10.82
2023-01-29T07:49:07.603Z,10.98
2023-01-29T07:51:33.945Z,11.00
2023-01-29T07:54:00.333Z,10.50
2023-01-29T07:56:26.665Z,11.20
2023-01-29T07:58:52.988Z,11.00
2023-01-29T08:01:19.427Z,10.45
2023-01-29T08:03:45.754Z,10.77
2023-01-29T08:06:12.091Z,12.23
2023-01-29T08:08:38.371Z,12.68
2023-01-29T08:11:05.560Z,12.57
2023-01-29T08:13:32.400Z,13.20
2023-01-29T08:15:59.837Z,13.45
2023-01-29T08:18:26.159Z,12.95
2023-01-29T08:20:52.954Z,12.48
2023-01-29T08:23:19.318Z,13.60
2023-01-29T08:25:45.599Z,12.68
2023-01-29T08:28:12.403Z,13.15
2023-01-29T08:30:39.399Z,12.68
2023-01-29T08:33:05.710Z,11.85
2023-01-29T08:35:32.271Z,11.90
2023-01-29T08:38:00.307Z,12.77
2023-01-29T08:40:33.869Z,13.07
2023-01-29T08:43:02.246Z,13.35
2023-01-29T08:45:30.047Z,13.82
2023-01-29T08:47:56.472Z,12.90
2023-01-29T08:50:22.815Z,12.98
2023-01-29T08:52:49.114Z,12.75
2023-01-29T08:55:15.674Z,13.40
2023-01-29T08:57:42.189Z,13.13
2023-01-29T09:00:09.535Z,14.82
2023-01-29T09:02:35.985Z,13.30
2023-01-29T09:05:02.318Z,14.05
2023-01-29T09:07:29.366Z,14.35
2023-01-29T09:09:55.646Z,14.65
2023-01-29T09:12:21.929Z,14.40
2023-01-29T09:14:48.326Z,13.63
2023-01-29T09:17:15.390Z,14.68
2023-01-29T09:19:41.731Z,15.13
2023-01-29T09:22:08.494Z,16.02
2023-01-29T09:24:35.824Z,14.90
2023-01-29T09:27:02.154Z,14.73
2023-01-29T09:29:28.427Z,14.57
2023-01-29T09:31:54.885Z,14.30
2023-01-29T09:34:21.205Z,14.02
2023-01-29T09:36:47.569Z,15.18
2023-01-29T09:39:13.869Z,15.43
2023-01-29T09:41:51.553Z,14.65
2023-01-29T09:44:47.111Z,15.50
2023-01-29T09:47:15.491Z,16.55
2023-01-29T09:49:45.959Z,15.57
2023-01-29T09:52:18.982Z,14.90
2023-01-29T09:55:05.632Z,13.60
2023-01-29T09:57:38.040Z,15.43
2023-01-29T10:00:04.756Z,15.35
2023-01-29T10:02:43.887Z,15.02
2023-01-29T10:05:29.984Z,15.02
2023-01-29T10:08:11.665Z,14.38
2023-01-29T10:10:44.310Z,13.93
2023-01-29T10:13:10.609Z,15.23
2023-01-29T10:15:52.265Z,14.68
2023-01-29T10:18:18.592Z,13.60
2023-01-29T10:20:48.772Z,13.93
2023-01-29T10:23:26.776Z,13.82
2023-01-29T10:25:53.634Z,13.48
2023-01-29T10:28:43.175Z,13.95
2023-01-29T10:31:11.360Z,14.10
2023-01-29T10:33:49.284Z,14.15
2023-01-29T10:36:32.093Z,13.73
2023-01-29T10:38:58.424Z,13.98
2023-01-29T10:41:24.707Z,13.20
2023-01-29T10:44:09.759Z,13.50
2023-01-29T10:46:48.314Z,12.63
2023-01-29T10:49:50.216Z,12.88
2023-01-29T10:52:34.950Z,14.18
2023-01-29T10:55:01.199Z,13.77
2023-01-29T10:57:47.861Z,13.48
2023-01-29T11:00:25.129Z,12.90
2023-01-29T11:02:51.900Z,13.40
2023-01-29T11:05:30.868Z,12.40
2023-01-29T11:08:01.478Z,11.68
2023-01-29T11:10:29.359Z,12.07
2023-01-29T11:12:56.318Z,12.75
2023-01-29T11:15:26.232Z,12.23
2023-01-29T11:18:03.460Z,11.40
2023-01-29T11:20:29.994Z,10.75
2023-01-29T11:22:56.453Z,10.60
2023-01-29T11:25:22.821Z,10.02
2023-01-29T11:27:50.248Z,9.85
2023-01-29T11:30:21.590Z,10.20
2023-01-29T11:32:52.712Z,10.68
2023-01-29T11:35:24.249Z,10.50
2023-01-29T11:37:50.871Z,9.43
2023-01-29T11:40:20.470Z,9.40
2023-01-29T11:42:47.256Z,9.50
2023-01-29T11:45:19.671Z,9.88
2023-01-29T11:47:49.033Z,10.25
2023-01-29T11:50:21.056Z,9.82
2023-01-29T11:52:48.212Z,8.68
2023-01-29T11:55:17.496Z,8.10
2023-01-29T11:57:46.549Z,8.02
2023-01-29T12:00:23.542Z,8.52
2023-01-29T12:02:57.773Z,8.70
2023-01-29T12:05:25.288Z,8.48
2023-01-29T12:07:52.723Z,9.40
2023-01-29T12:10:33.149Z,8.88
2023-01-29T12:13:19.902Z,9.02
2023-01-29T12:15:47.020Z,9.38
2023-01-29T12:18:22.767Z,8.30
2023-01-29T12:20:59.912Z,8.75
2023-01-29T12:23:43.258Z,8.65
2023-01-29T12:26:17.943Z,8.63
2023-01-29T12:28:54.618Z,8.70
2023-01-29T12:31:26.767Z,8.73
2023-01-29T12:33:53.178Z,8.70
2023-01-29T12:36:19.465Z,8.77
2023-01-29T12:38:45.892Z,8.27
2023-01-29T12:41:18.311Z,8.15
2023-01-29T12:43:57.565Z,9.23
2023-01-29T12:46:28.945Z,9.27
2023-01-29T12:48:56.952Z,9.68
2023-01-29T12:51:25.459Z,10.18
2023-01-29T12:54:02.291Z,9.23
2023-01-29T12:56:38.078Z,9.75
2023-01-29T12:59:24.644Z,9.48
2023-01-29T13:01:54.465Z,8.95
2023-01-29T13:04:47.212Z,9.15
2023-01-29T13:07:15.784Z,9.50
2023-01-29T13:09:44.477Z,9.45
2023-01-29T13:12:15.765Z,10.10
2023-01-29T13:14:45.153Z,9.05
2023-01-29T13:17:15.450Z,8.75
2023-01-29T13:19:45.220Z,9.35
2023-01-29T13:22:20.659Z,8.88
2023-01-29T13:25:02.309Z,8.60
2023-01-29T13:27:30.973Z,8.18
2023-01-29T13:29:57.659Z,7.97
2023-01-29T13:32:25.856Z,7.97
2023-01-29T13:34:53.909Z,8.32
2023-01-29T13:37:23.223Z,12.52
2023-01-29T13:39:51.717Z,8.52
2023-01-29T13:42:22.110Z,8.20
2023-01-29T13:44:49.846Z,8.70
2023-01-29T13:47:25.742Z,9.00
2023-01-29T13:50:02.861Z,9.00
2023-01-29T13:52:33.945Z,9.95
2023-01-29T13:55:08.079Z,9.15
2023-01-29T13:57:34.329Z,9.68
2023-01-29T14:00:00.676Z,9.07
2023-01-29T14:02:27.970Z,9.60
2023-01-29T14:05:12.950Z,9.70
2023-01-29T14:07:39.241Z,8.63
2023-01-29T14:10:15.978Z,9.90
2023-01-29T14:12:43.104Z,9.20
2023-01-29T14:15:21.131Z,9.85
2023-01-29T14:18:14.544Z,9.38
2023-01-29T14:20:50.023Z,9.88
2023-01-29T14:23:21.285Z,9.52
2023-01-29T14:25:47.926Z,9.27
2023-01-29T14:28:16.206Z,10.18
2023-01-29T14:30:46.920Z,10.05
2023-01-29T14:33:41.008Z,9.82
2023-01-29T14:36:15.372Z,10.07
2023-01-29T14:38:47.683Z,9.85
2023-01-29T14:41:19.947Z,10.13
2023-01-29T14:43:46.243Z,13.35
2023-01-29T14:46:31.448Z,10.98
2023-01-29T14:48:57.822Z,9.82
2023-01-29T14:51:25.287Z,10.07
2023-01-29T14:53:58.354Z,9.85
2023-01-29T14:56:32.293Z,8.20
2023-01-29T14:59:34.367Z,9.23
2023-01-29T15:02:04.149Z,9.93
2023-01-29T15:04:43.937Z,9.68
2023-01-29T15:07:10.205Z,10.07
2023-01-29T15:09:42.338Z,10.38
2023-01-29T15:12:21.764Z,10.00
2023-01-29T15:14:52.355Z,10.32
2023-01-29T15:17:21.677Z,10.82
2023-01-29T15:19:48.575Z,9.93
2023-01-29T15:22:16.300Z,9.77
2023-01-29T15:24:43.533Z,9.00
2023-01-29T15:27:12.363Z,9.65
2023-01-29T15:29:39.126Z,9.60
2023-01-29T15:32:05.923Z,9.73
2023-01-29T15:34:32.538Z,10.25
2023-01-29T15:36:59.024Z,10.45
2023-01-29T15:39:26.973Z,9.63
2023-01-29T15:42:04.713Z,9.52
2023-01-29T15:44:31.010Z,9.93
2023-01-29T15:46:59.126Z,9.90
2023-01-29T15:49:29.677Z,10.55
2023-01-29T15:51:57.434Z,10.52
2023-01-29T15:54:24.108Z,9.80
2023-01-29T15:56:51.631Z,11.10
2023-01-29T15:59:19.433Z,11.05
2023-01-29T16:01:45.794Z,10.07
2023-01-29T16:04:18.688Z,11.15
2023-01-29T16:06:45.645Z,11.40
2023-01-29T16:09:16.958Z,10.85
2023-01-29T16:11:43.715Z,10.93
2023-01-29T16:14:12.930Z,11.15
2023-01-29T16:16:39.269Z,11.63
2023-01-29T16:19:14.041Z,11.70
2023-01-29T16:21:43.466Z,11.35
2023-01-29T16:24:11.679Z,10.65
2023-01-29T16:26:42.021Z,12.30
2023-01-29T16:29:10.687Z,14.00
2023-01-29T16:31:37.713Z,16.40
2023-01-29T16:34:14.425Z,16.70
2023-01-29T16:36:45.770Z,16.98
2023-01-29T16:39:18.526Z,17.23
2023-01-29T16:41:44.836Z,22.55
2023-01-29T16:44:20.307Z,20.02
2023-01-29T16:46:47.737Z,19.60
2023-01-29T16:49:29.137Z,20.85
2023-01-29T16:51:56.490Z,22.45
2023-01-29T16:54:26.435Z,20.92
2023-01-29T16:56:54.494Z,19.02
2023-01-29T16:59:26.634Z,20.42
2023-01-29T17:01:54.757Z,19.83
2023-01-29T17:04:21.145Z,19.70
2023-01-29T17:06:55.572Z,18.33
2023-01-29T17:09:26.189Z,18.63
2023-01-29T17:11:57.136Z,22.60
2023-01-29T17:14:24.214Z,21.13
2023-01-29T17:16:53.321Z,21.05
2023-01-29T17:19:25.207Z,19.35
2023-01-29T17:21:51.880Z,18.60
2023-01-29T17:24:18.191Z,19.13
2023-01-29T17:26:44.677Z,18.80
2023-01-29T17:29:19.073Z,18.52
2023-01-29T17:31:45.720Z,19.38
2023-01-29T17:34:14.061Z,21.50
2023-01-29T17:36:43.459Z,20.88
2023-01-29T17:39:23.025Z,21.42
2023-01-29T17:41:50.643Z,22.83
2023-01-29T17:44:17.516Z,20.33
2023-01-29T17:46:44.060Z,19.30
2023-01-29T17:49:19.391Z,18.83
2023-01-29T17:51:46.065Z,16.58
2023-01-29T17:54:12.372Z,16.35
2023-01-29T17:56:38.652Z,16.23
2023-01-29T17:59:24.168Z,17.48
2023-01-29T18:01:51.009Z,18.70
2023-01-29T18:04:17.678Z,24.55
2023-01-29T18:06:45.114Z,21.58
2023-01-29T18:09:13.346Z,17.92
2023-01-29T18:11:39.754Z,16.00
2023-01-29T18:14:14.039Z,15.27
2023-01-29T18:16:41.452Z,17.83
2023-01-29T18:19:13.010Z,20.17
2023-01-29T18:21:39.422Z,20.80
2023-01-29T18:24:05.884Z,21.30
2023-01-29T18:26:32.249Z,21.92
2023-01-29T18:28:58.545Z,20.38
2023-01-29T18:31:24.828Z,16.92
2023-01-29T18:33:51.153Z,14.75
2023-01-29T18:36:17.448Z,14.60
2023-01-29T18:38:43.774Z,14.25
2023-01-29T18:41:10.857Z,14.55
2023-01-29T18:43:37.623Z,14.43
2023-01-29T18:46:04.095Z,14.77
2023-01-29T18:48:30.968Z,18.40
2023-01-29T18:50:57.304Z,18.33
2023-01-29T18:53:23.683Z,21.38
2023-01-29T18:56:00.376Z,21.17
2023-01-29T18:58:36.717Z,24.13
2023-01-29T19:01:08.832Z,15.70
2023-01-29T19:03:35.873Z,14.68
2023-01-29T19:06:02.819Z,13.55
2023-01-29T19:08:29.859Z,14.10
2023-01-29T19:10:57.709Z,13.73
2023-01-29T19:13:23.993Z,15.30
2023-01-29T19:15:50.345Z,16.40
2023-01-29T19:18:16.609Z,16.77
2023-01-29T19:20:42.977Z,18.38
2023-01-29T19:23:09.601Z,18.00
2023-01-29T19:25:36.856Z,18.25
2023-01-29T19:28:03.095Z,17.33
2023-01-29T19:30:29.406Z,17.65
2023-01-29T19:32:55.755Z,17.77
2023-01-29T19:35:22.091Z,16.55
2023-01-29T19:37:48.493Z,18.30
2023-01-29T19:40:14.910Z,18.02
2023-01-29T19:42:41.836Z,20.15
2023-01-29T19:45:08.633Z,18.90
2023-01-29T19:47:38.298Z,19.40
2023-01-29T19:50:04.845Z,18.92
2023-01-29T19:52:51.400Z,20.25
2023-01-29T19:55:19.121Z,19.50
2023-01-29T19:57:45.595Z,19.90
2023-01-29T20:00:12.212Z,20.38
2023-01-29T20:02:38.583Z,19.80
2023-01-29T20:05:05.512Z,21.45
2023-01-29T20:07:31.752Z,19.50
2023-01-29T20:09:58.089Z,21.05
2023-01-29T20:12:24.382Z,18.90
2023-01-29T20:14:51.942Z,18.58
2023-01-29T20:17:18.280Z,21.08
2023-01-29T20:19:44.890Z,21.17
2023-01-29T20:22:11.883Z,20.65
2023-01-29T20:24:42.163Z,20.60
2023-01-29T20:27:09.711Z,20.80
2023-01-29T20:29:36.312Z,21.73
2023-01-29T20:32:03.993Z,22.08
2023-01-29T20:34:31.072Z,22.55
2023-01-29T20:36:57.482Z,21.83
2023-01-29T20:39:23.747Z,21.60
2023-01-29T20:41:50.049Z,22.88
2023-01-29T20:44:16.417Z,21.10
2023-01-29T20:46:42.758Z,21.65
2023-01-29T20:49:09.159Z,22.17
2023-01-29T20:51:35.441Z,21.45
2023-01-29T20:54:01.867Z,22.75
2023-01-29T20:56:37.901Z,22.30
2023-01-29T20:59:10.465Z,23.83
2023-01-29T21:01:36.803Z,23.95
2023-01-29T21:04:03.254Z,22.75
2023-01-29T21:06:29.788Z,23.42
2023-01-29T21:08:56.216Z,23.30
2023-01-29T21:11:22.489Z,23.27
2023-01-29T21:13:48.811Z,23.67
2023-01-29T21:16:15.095Z,23.98
2023-01-29T21:18:41.472Z,22.23
2023-01-29T21:21:07.809Z,22.67
2023-01-29T21:23:34.104Z,22.63
2023-01-29T21:26:02.006Z,23.05
2023-01-29T21:28:28.320Z,21.70
2023-01-29T21:31:16.101Z,22.23
2023-01-29T21:33:43.044Z,22.48
2023-01-29T21:36:10.076Z,22.42
2023-01-29T21:38:36.516Z,22.48
2023-01-29T21:41:04.563Z,22.02
2023-01-29T21:43:30.961Z,21.50
2023-01-29T21:45:58.261Z,21.80
2023-01-29T21:48:24.974Z,22.15
2023-01-29T21:50:51.876Z,21.90
2023-01-29T21:53:18.717Z,22.92
2023-01-29T21:55:45.732Z,22.33
2023-01-29T21:58:14.294Z,22.20
2023-01-29T22:00:40.912Z,23.48
2023-01-29T22:03:07.198Z,22.60
2023-01-29T22:05:34.200Z,22.92
2023-01-29T22:08:00.785Z,23.13
2023-01-29T22:10:27.562Z,23.50
2023-01-29T22:12:54.133Z,24.88
2023-01-29T22:15:22.605Z,24.23
2023-01-29T22:17:49.952Z,23.63
2023-01-29T22:20:16.652Z,23.63
2023-01-29T22:22:43.395Z,20.98
2023-01-29T22:25:10.115Z,23.30
2023-01-29T22:27:36.725Z,22.83
2023-01-29T22:30:03.607Z,23.13
2023-01-29T22:32:31.342Z,21.75
2023-01-29T22:34:57.644Z,22.48
2023-01-29T22:37:23.909Z,21.20
2023-01-29T22:39:50.185Z,22.52
2023-01-29T22:42:18.220Z,21.55
2023-01-29T22:44:44.583Z,21.92
2023-01-29T22:47:10.885Z,22.50
2023-01-29T22:49:37.169Z,22.90
2023-01-29T22:52:12.809Z,23.63
2023-01-29T22:54:40.026Z,22.13
2023-01-29T22:57:06.638Z,22.25
2023-01-29T22:59:33.464Z,20.92
2023-01-29T23:02:00.001Z,22.52
2023-01-29T23:04:26.556Z,23.30
2023-01-29T23:06:52.870Z,21.17
2023-01-29T23:09:19.213Z,22.35
2023-01-29T23:11:45.482Z,22.20
2023-01-29T23:14:11.760Z,22.20
2023-01-29T23:16:38.071Z,21.98
2023-01-29T23:19:04.416Z,21.63
2023-01-29T23:21:30.730Z,22.02
2023-01-29T23:23:58.422Z,21.42
2023-01-29T23:26:44.044Z,22.38
2023-01-29T23:29:10.458Z,21.27
2023-01-29T23:31:36.831Z,20.70
2023-01-29T23:34:03.102Z,20.80
2023-01-29T23:36:29.443Z,20.77
2023-01-29T23:38:55.815Z,20.38
2023-01-29T23:41:22.292Z,20.80
2023-01-29T23:43:48.684Z,20.45
2023-01-29T23:46:15.047Z,18.85
2023-01-29T23:48:41.350Z,19.40
2023-01-29T23:51:07.664Z,18.80
2023-01-29T23:53:33.967Z,20.63
2023-01-29T23:56:01.365Z,19.15
2023-01-29T23:58:28.240Z,18.98
